Time;durP1;ratioP1;P1;durP2;ratioP2;P2;SDS_P1;SDS_P2;PMS_P1;PMS_P2;Temp;Humidity;BMP_temperature;BMP_pressure;BME280_temperature;BME280_humidity;BME280_pressure;Samples;Min_cycle;Max_cycle;Signal;HPM_P1;HPM_P2
2021/12/22 00:00:58;;;;;;;26.85;15.80;;;;;;;-2.33;96.49;101477.19;4882889;29;20521;-89
2021/12/22 00:03:25;;;;;;;29.23;15.95;;;;;;;-2.45;96.74;101450.97;4883443;29;20048;-90
2021/12/22 00:05:52;;;;;;;26.02;14.98;;;;;;;-2.56;96.39;101437.78;4881224;29;20061;-89
2021/12/22 00:08:19;;;;;;;28.50;15.55;;;;;;;-2.45;96.33;101458.75;4880777;29;20053;-89
2021/12/22 00:10:47;;;;;;;27.40;15.55;;;;;;;-2.37;96.67;101462.41;4884115;29;20053;-90
2021/12/22 00:13:14;;;;;;;31.90;15.63;;;;;;;-2.46;97.01;101450.09;4879298;29;20063;-89
2021/12/22 00:15:40;;;;;;;29.15;15.35;;;;;;;-2.63;96.45;101421.19;4883446;29;20069;-89
2021/12/22 00:18:08;;;;;;;32.63;16.30;;;;;;;-2.50;96.25;101448.28;4879340;29;20064;-89
2021/12/22 00:20:34;;;;;;;30.48;16.15;;;;;;;-2.41;96.77;101450.22;4882800;29;20082;-89
2021/12/22 00:23:02;;;;;;;25.98;14.82;;;;;;;-2.39;96.06;101456.31;4882638;29;20061;-89
2021/12/22 00:25:30;;;;;;;27.92;15.85;;;;;;;-2.44;96.17;101463.97;4880013;29;20075;-89
2021/12/22 00:27:59;;;;;;;30.25;15.50;;;;;;;-2.66;96.52;101439.25;4878270;29;20049;-89
2021/12/22 00:30:27;;;;;;;30.05;15.60;;;;;;;-2.45;96.47;101480.38;4878289;29;20076;-90
2021/12/22 00:33:01;;;;;;;28.45;15.75;;;;;;;-2.59;96.74;101458.44;4880173;29;20091;-90
2021/12/22 00:35:37;;;;;;;28.58;15.43;;;;;;;-2.58;96.88;101468.84;4882926;29;20394;-89
2021/12/22 00:38:11;;;;;;;31.00;15.90;;;;;;;-2.75;96.99;101441.66;4872212;29;20388;-89
2021/12/22 00:40:40;;;;;;;34.20;17.02;;;;;;;-2.75;96.94;101444.25;4895737;29;20454;-89
2021/12/22 00:43:08;;;;;;;31.75;16.08;;;;;;;-2.59;96.81;101474.88;4879620;29;20088;-89
2021/12/22 00:45:38;;;;;;;28.83;15.85;;;;;;;-2.59;96.75;101477.47;4880636;29;20140;-89
2021/12/22 00:48:07;;;;;;;32.03;16.25;;;;;;;-2.74;96.57;101446.00;4883156;29;20742;-89
2021/12/22 00:50:36;;;;;;;34.50;17.33;;;;;;;-2.72;96.50;101456.41;4883717;29;20083;-89
2021/12/22 00:53:03;;;;;;;29.65;15.80;;;;;;;-2.80;96.73;101448.44;4882378;29;20135;-89
2021/12/22 00:55:30;;;;;;;37.35;17.40;;;;;;;-2.74;96.87;101458.97;4878477;29;20045;-88
2021/12/22 00:57:59;;;;;;;31.25;15.85;;;;;;;-2.89;96.73;101443.94;4886843;29;20049;-88
2021/12/22 01:00:29;;;;;;;29.58;15.95;;;;;;;-2.91;96.52;101434.34;4878822;29;20410;-89
2021/12/22 01:02:56;;;;;;;31.80;15.77;;;;;;;-2.91;97.15;101439.53;4877853;29;20045;-89
2021/12/22 01:05:29;;;;;;;28.42;15.75;;;;;;;-2.92;96.81;101432.59;4881806;29;20045;-89
2021/12/22 01:07:56;;;;;;;31.15;15.80;;;;;;;-2.76;96.66;101464.94;4878971;29;20049;-88
2021/12/22 01:10:28;;;;;;;27.88;15.57;;;;;;;-2.97;97.46;101429.00;4876807;29;20140;-89
2021/12/22 01:12:58;;;;;;;30.88;16.30;;;;;;;-3.10;97.16;101419.19;4881638;29;20144;-89
2021/12/22 01:15:26;;;;;;;37.85;16.90;;;;;;;-2.98;97.25;101437.63;4880492;29;20137;-89
2021/12/22 01:18:01;;;;;;;28.13;16.38;;;;;;;-2.99;97.51;101447.09;4882054;29;20145;-88
2021/12/22 01:20:37;;;;;;;29.42;16.25;;;;;;;-3.00;97.58;101452.28;4877624;29;20556;-89
2021/12/22 01:23:13;;;;;;;28.30;15.50;;;;;;;-3.19;97.53;101412.97;4877670;29;20065;-88
2021/12/22 01:25:43;;;;;;;29.75;16.90;;;;;;;-3.00;98.01;101441.91;4883242;29;20112;-89
2021/12/22 01:28:11;;;;;;;31.90;17.00;;;;;;;-3.17;97.98;101406.94;4877416;29;20093;-90
2021/12/22 01:30:43;;;;;;;29.15;15.98;;;;;;;-2.99;97.77;101441.09;4883401;29;20088;-90
2021/12/22 01:33:11;;;;;;;29.10;15.63;;;;;;;-2.98;97.70;101442.81;4877718;29;20049;-89
2021/12/22 01:35:38;;;;;;;30.00;16.60;;;;;;;-3.03;97.97;101441.84;4882482;29;20056;-89
2021/12/22 01:38:15;;;;;;;33.00;16.92;;;;;;;-2.96;97.40;101457.56;4884771;29;20053;-89
2021/12/22 01:40:44;;;;;;;33.00;16.55;;;;;;;-2.88;98.15;101481.09;4880759;29;20085;-89
2021/12/22 01:43:14;;;;;;;29.23;16.08;;;;;;;-3.23;97.55;101430.97;4879175;29;20061;-89
2021/12/22 01:51:29;;;;;;;33.22;16.10;;;;;;;-3.01;97.70;101468.66;4882812;29;20040;-89
2021/12/22 01:54:04;;;;;;;31.42;17.02;;;;;;;-3.16;97.61;101458.78;4877598;29;20133;-89
2021/12/22 01:56:33;;;;;;;31.23;16.40;;;;;;;-3.27;97.76;101440.38;4881347;29;20041;-88
2021/12/22 01:59:06;;;;;;;30.33;16.48;;;;;;;-3.02;97.92;101487.63;4877994;29;20105;-89
2021/12/22 02:01:34;;;;;;;32.95;16.52;;;;;;;-3.24;98.17;101456.00;4883844;29;20080;-89
2021/12/22 02:04:03;;;;;;;33.45;16.75;;;;;;;-3.26;97.98;101449.91;4862764;29;20053;-89
2021/12/22 02:06:31;;;;;;;33.40;16.45;;;;;;;-3.17;98.86;101466.53;4878684;29;20057;-89
2021/12/22 02:08:59;;;;;;;31.75;16.40;;;;;;;-3.24;98.64;101466.34;4886545;29;20279;-89
2021/12/22 02:11:26;;;;;;;30.15;15.43;;;;;;;-2.98;98.97;101505.88;4881829;29;20040;-89
2021/12/22 02:13:59;;;;;;;30.67;16.00;;;;;;;-3.29;98.66;101438.56;4873828;29;20560;-89
2021/12/22 02:16:32;;;;;;;32.15;16.40;;;;;;;-3.10;98.48;101471.00;4882051;29;20156;-89
2021/12/22 02:19:01;;;;;;;28.55;15.45;;;;;;;-3.12;97.78;101452.81;4881022;29;20045;-89
2021/12/22 02:21:32;;;;;;;31.52;16.35;;;;;;;-2.91;97.49;101497.44;4889154;29;20092;-89
2021/12/22 02:24:00;;;;;;;31.05;15.55;;;;;;;-2.97;97.79;101483.44;4874229;29;20074;-89
2021/12/22 02:26:37;;;;;;;33.35;15.75;;;;;;;-2.99;97.02;101492.91;4870938;29;20057;-89
2021/12/22 02:29:08;;;;;;;32.80;15.98;;;;;;;-3.12;97.54;101472.69;4880844;29;20062;-89
2021/12/22 02:31:41;;;;;;;;;;;;;;;-3.00;97.34;101493.75;4881162;29;20045;-89
2021/12/22 02:34:14;;;;;;;25.23;14.98;;;;;;;-3.41;97.62;101425.31;4877731;29;19983;-89
2021/12/22 02:36:45;;;;;;;28.67;14.80;;;;;;;-3.29;97.70;101454.13;4891421;29;20061;-91
2021/12/22 02:39:12;;;;;;;34.78;16.55;;;;;;;-3.27;97.97;101463.69;4888902;29;20043;-89
2021/12/22 02:41:40;;;;;;;29.98;15.57;;;;;;;-3.14;98.28;101488.19;4895442;29;20141;-89
2021/12/22 02:44:09;;;;;;;34.30;17.15;;;;;;;-3.12;98.00;101494.28;4893075;29;20125;-90
2021/12/22 02:46:38;;;;;;;28.65;15.50;;;;;;;-3.33;98.30;101467.84;4896917;29;20081;-90
2021/12/22 02:49:07;;;;;;;28.27;15.13;;;;;;;-3.45;97.95;101446.78;4884866;29;20044;-89
2021/12/22 02:51:35;;;;;;;34.47;15.75;;;;;;;-3.20;98.33;101498.41;4888300;29;20053;-90
2021/12/22 02:54:22;;;;;;;29.27;15.88;;;;;;;-3.41;98.50;101466.75;4880171;29;20065;-89
2021/12/22 02:59:45;;;;;;;28.20;15.52;;;;;;;-3.21;98.31;101501.81;4880664;29;20131;-89
2021/12/22 03:02:40;;;;;;;26.73;15.00;;;;;;;-3.35;98.31;101462.63;4878834;29;20499;-89
2021/12/22 03:04:59;;;;;;;30.52;15.63;;;;;;;-3.14;97.95;101502.84;4873810;29;20053;-89
2021/12/22 03:07:29;;;;;;;33.95;15.88;;;;;;;-3.32;97.22;101482.53;4896116;29;20037;-91
2021/12/22 03:10:04;;;;;;;28.73;15.80;;;;;;;-3.21;97.67;101512.19;4876511;29;20072;-90
2021/12/22 03:12:36;;;;;;;26.45;15.45;;;;;;;-3.46;97.33;101481.31;4880411;29;20051;-90
2021/12/22 03:15:06;;;;;;;29.17;15.10;;;;;;;-3.56;97.85;101462.03;4871771;29;20085;-90
2021/12/22 03:17:34;;;;;;;30.98;15.98;;;;;;;-3.65;97.90;101448.84;4880054;29;20145;-90
2021/12/22 03:20:03;;;;;;;28.73;16.00;;;;;;;-3.38;97.96;101497.91;4880570;29;20477;-89
2021/12/22 03:22:34;;;;;;;33.42;16.27;;;;;;;-3.44;97.66;101503.78;4879312;29;20083;-90
2021/12/22 03:25:01;;;;;;;33.85;16.92;;;;;;;-3.47;98.30;101492.50;4874281;29;20049;-90
2021/12/22 03:27:28;;;;;;;31.92;15.98;;;;;;;-3.77;97.67;101449.38;4881829;29;20097;-90
2021/12/22 03:29:55;;;;;;;27.73;16.20;;;;;;;-3.52;97.64;101492.38;4878875;29;20872;-91
2021/12/22 03:32:25;;;;;;;32.08;16.38;;;;;;;-3.63;98.27;101470.50;4879862;29;20140;-90
2021/12/22 03:34:53;;;;;;;38.08;16.63;;;;;;;-3.63;97.60;101465.31;4875311;29;20056;-92
2021/12/22 03:37:20;;;;;;;31.10;16.70;;;;;;;-3.67;98.12;101461.75;4880481;29;20041;-90
2021/12/22 03:39:46;;;;;;;29.13;16.15;;;;;;;-3.64;98.08;101477.38;4876793;29;20160;-90
2021/12/22 03:42:13;;;;;;;31.05;16.75;;;;;;;-3.66;98.57;101475.56;4878840;29;20076;-90
2021/12/22 03:44:41;;;;;;;31.45;16.95;;;;;;;-3.67;98.27;101479.00;4876798;29;20049;-91
2021/12/22 03:47:08;;;;;;;33.20;16.98;;;;;;;-3.72;98.84;101472.81;4875136;29;20105;-90
2021/12/22 03:49:35;;;;;;;31.38;17.10;;;;;;;-3.62;98.54;101495.53;4878744;29;20049;-89
2021/12/22 03:52:04;;;;;;;37.03;17.00;;;;;;;-3.94;98.50;101443.75;4881133;29;20056;-89
2021/12/22 03:54:31;;;;;;;34.28;17.20;;;;;;;-3.75;98.63;101483.94;4877076;29;20076;-89
2021/12/22 03:57:01;;;;;;;29.75;16.77;;;;;;;-3.99;98.08;101440.16;4885447;29;20108;-89
2021/12/22 03:59:33;;;;;;;35.92;17.27;;;;;;;-3.77;97.91;101466.59;4876582;29;20527;-90
2021/12/22 04:02:00;;;;;;;32.60;17.98;;;;;;;-3.79;98.18;101468.31;4872971;29;20052;-90
2021/12/22 04:04:27;;;;;;;33.83;17.77;;;;;;;-3.79;98.40;101471.78;4878400;29;20041;-92
2021/12/22 04:06:54;;;;;;;31.95;17.70;;;;;;;-4.10;98.47;101426.03;4876193;29;20107;-89
2021/12/22 04:09:26;;;;;;;32.72;17.15;;;;;;;-3.94;98.15;101453.22;4879960;29;20438;-90
2021/12/22 04:11:55;;;;;;;36.90;17.92;;;;;;;-4.12;98.38;101421.66;4879224;29;20053;-90
2021/12/22 04:14:22;;;;;;;32.88;17.15;;;;;;;-3.98;98.18;101459.13;4877177;29;20087;-91
2021/12/22 04:16:48;;;;;;;33.88;17.90;;;;;;;-4.08;98.65;101450.22;4877158;29;20041;-90
2021/12/22 04:19:16;;;;;;;29.77;17.55;;;;;;;-3.98;98.99;101465.19;4876012;29;20382;-90
2021/12/22 04:21:45;;;;;;;36.10;19.40;;;;;;;-4.01;99.06;101464.22;4879379;29;20052;-92
2021/12/22 04:24:12;;;;;;;37.40;18.40;;;;;;;-4.08;99.00;101459.69;4877878;29;20503;-89
2021/12/22 04:26:41;;;;;;;34.38;18.23;;;;;;;-4.10;98.95;101453.63;4881271;29;20494;-90
2021/12/22 04:29:10;;;;;;;35.25;17.48;;;;;;;-3.91;99.18;101490.38;4878867;29;20203;-90
2021/12/22 04:31:37;;;;;;;33.05;17.40;;;;;;;-4.08;99.02;101465.72;4892334;29;20052;-89
2021/12/22 04:34:08;;;;;;;35.88;17.92;;;;;;;-3.96;98.86;101485.94;4889169;29;20056;-90
2021/12/22 04:36:36;;;;;;;30.73;17.38;;;;;;;-4.07;98.89;101458.84;4883701;29;20830;-90
2021/12/22 04:39:04;;;;;;;31.60;17.63;;;;;;;-4.05;98.25;101468.41;4883813;29;20088;-90
2021/12/22 04:41:31;;;;;;;30.48;17.42;;;;;;;-4.00;98.59;101478.91;4883319;29;20509;-91
2021/12/22 04:43:58;;;;;;;31.52;17.48;;;;;;;-3.96;98.69;101480.75;4877614;29;20560;-90
2021/12/22 04:46:25;;;;;;;32.25;17.63;;;;;;;-4.17;98.77;101439.63;4879182;29;20060;-89
2021/12/22 04:48:52;;;;;;;34.78;17.55;;;;;;;-4.34;98.79;101413.25;4888096;29;20074;-90
2021/12/22 04:51:29;;;;;;;32.20;17.73;;;;;;;-3.97;99.57;101469.53;4889933;29;20069;-89
2021/12/22 04:56:55;;;;;;;33.72;17.52;;;;;;;-3.97;99.63;101474.72;4832547;29;20057;-90
2021/12/22 04:59:22;;;;;;;34.78;17.60;;;;;;;-4.42;99.60;101407.00;4887044;29;20068;-89
2021/12/22 05:01:49;;;;;;;30.83;17.02;;;;;;;-4.22;99.78;101429.97;4883279;29;20445;-90
2021/12/22 05:04:16;;;;;;;33.00;16.40;;;;;;;-4.23;98.95;101431.66;4874129;29;20122;-90
2021/12/22 05:06:43;;;;;;;32.97;17.40;;;;;;;-4.02;99.66;101467.63;4876386;29;21039;-90
2021/12/22 05:09:10;;;;;;;34.30;17.60;;;;;;;-4.10;99.60;101454.50;4880486;29;20053;-89
2021/12/22 05:11:41;;;;;;;30.85;17.40;;;;;;;-4.00;98.93;101472.03;4877496;29;20053;-90
2021/12/22 05:14:10;;;;;;;30.88;16.98;;;;;;;-4.04;98.78;101456.38;4877696;29;20244;-91
2021/12/22 05:16:45;;;;;;;30.70;18.02;;;;;;;-4.38;98.63;101402.78;4877959;29;20083;-91
2021/12/22 05:21:39;;;;;;;33.95;16.05;;;;;;;-4.29;98.91;101426.34;4871945;29;20060;-90
2021/12/22 05:24:06;;;;;;;30.92;17.08;;;;;;;-4.44;98.55;101410.38;4879372;29;20152;-90
2021/12/22 05:26:34;;;;;;;34.67;17.60;;;;;;;-4.20;98.84;101449.88;4881212;29;20047;-90
2021/12/22 05:29:01;;;;;;;31.45;17.30;;;;;;;-4.22;99.57;101448.94;4883027;29;20737;-91
2021/12/22 05:31:28;;;;;;;34.25;17.27;;;;;;;-4.16;99.48;101459.47;4870713;29;20560;-89
2021/12/22 05:33:57;;;;;;;32.72;17.13;;;;;;;-4.27;99.64;101435.91;4873954;29;20151;-90
2021/12/22 05:36:24;;;;;;;30.90;16.30;;;;;;;-4.20;99.27;101455.03;4877549;29;20105;-89
2021/12/22 05:38:50;;;;;;;31.73;17.40;;;;;;;-4.20;99.77;101451.56;4883232;29;20057;-90
2021/12/22 05:41:17;;;;;;;30.50;16.65;;;;;;;-4.28;100.00;101428.97;4879694;29;20109;-89
2021/12/22 05:43:44;;;;;;;32.05;17.30;;;;;;;-4.37;99.91;101417.47;4883169;29;21463;-90
2021/12/22 05:46:11;;;;;;;31.13;16.80;;;;;;;-4.20;99.51;101441.22;4891503;29;20052;-90
2021/12/22 05:48:38;;;;;;;36.47;17.38;;;;;;;-3.96;99.20;101485.94;4894979;29;20070;-90
2021/12/22 05:51:06;;;;;;;31.80;17.63;;;;;;;-4.03;98.83;101477.09;4886742;29;20052;-90
2021/12/22 05:53:33;;;;;;;35.70;16.80;;;;;;;-4.17;98.69;101454.25;4903428;29;20063;-89
2021/12/22 05:56:00;;;;;;;31.10;16.63;;;;;;;-4.33;98.05;101437.41;4879823;29;20055;-89
2021/12/22 05:58:27;;;;;;;31.83;16.90;;;;;;;-4.15;98.59;101470.69;4879102;29;20044;-89
2021/12/22 06:00:55;;;;;;;28.60;16.63;;;;;;;-4.27;98.00;101455.72;4874602;29;20557;-89
2021/12/22 06:03:21;;;;;;;33.25;16.83;;;;;;;-4.41;98.05;101438.91;4875400;29;20481;-89
2021/12/22 06:05:48;;;;;;;29.80;15.95;;;;;;;-4.45;98.81;101437.94;4882459;29;20056;-89
2021/12/22 06:08:15;;;;;;;32.72;16.83;;;;;;;-4.42;98.50;101456.13;4881417;29;20045;-89
2021/12/22 06:10:42;;;;;;;30.75;15.95;;;;;;;-4.27;98.89;101481.56;4877723;29;20048;-89
2021/12/22 06:13:10;;;;;;;30.17;16.65;;;;;;;-4.33;98.42;101487.41;4876463;29;20151;-89
2021/12/22 06:15:39;;;;;;;31.45;16.90;;;;;;;-4.64;98.46;101435.59;4881378;29;20163;-88
2021/12/22 06:18:06;;;;;;;37.60;16.90;;;;;;;-4.55;98.27;101460.84;4885213;29;20076;-91
2021/12/22 06:20:35;;;;;;;33.95;17.23;;;;;;;-4.53;98.37;101480.75;4875100;29;20084;-90
2021/12/22 06:23:03;;;;;;;36.42;17.35;;;;;;;-4.39;99.11;101512.19;4881711;29;20095;-90
2021/12/22 06:25:34;;;;;;;33.80;16.75;;;;;;;-4.47;98.72;101501.63;4881079;29;20480;-90
2021/12/22 06:28:00;;;;;;;33.92;16.75;;;;;;;-4.43;98.47;101513.84;4879475;29;20052;-90
2021/12/22 06:30:27;;;;;;;33.75;17.20;;;;;;;-4.63;98.94;101491.63;4875414;29;20113;-90
2021/12/22 06:32:54;;;;;;;36.80;18.42;;;;;;;-4.48;98.74;101517.97;4876198;29;20311;-90
2021/12/22 06:35:20;;;;;;;27.90;16.15;;;;;;;-4.63;98.75;101495.09;4881246;29;20060;-90
2021/12/22 06:37:47;;;;;;;36.10;17.63;;;;;;;-4.54;98.71;101514.28;4880433;29;20128;-90
2021/12/22 06:40:14;;;;;;;31.20;17.70;;;;;;;-4.79;98.71;101477.34;4874417;29;20501;-90
2021/12/22 06:42:41;;;;;;;34.90;17.98;;;;;;;-4.75;98.91;101484.38;4875304;29;20077;-90
2021/12/22 06:45:10;;;;;;;32.38;16.80;;;;;;;-4.73;98.75;101479.25;4880169;29;20079;-91
2021/12/22 06:47:38;;;;;;;33.95;17.50;;;;;;;-4.68;99.00;101485.44;4879772;29;20060;-90
2021/12/22 06:50:06;;;;;;;31.13;16.95;;;;;;;-4.52;98.52;101515.22;4876135;29;20082;-90
2021/12/22 06:52:33;;;;;;;31.00;16.92;;;;;;;-4.57;99.15;101511.63;4885395;29;20057;-90
2021/12/22 06:55:00;;;;;;;32.65;17.27;;;;;;;-4.85;98.87;101461.63;4880545;29;20061;-90
2021/12/22 06:57:29;;;;;;;33.13;17.10;;;;;;;-4.90;99.77;101452.88;4882698;29;20230;-90
2021/12/22 06:59:58;;;;;;;;;;;;;;;-4.53;99.39;101510.88;4881073;29;20049;-90
2021/12/22 07:02:26;;;;;;;31.73;16.20;;;;;;;-4.86;99.30;101459.00;4878198;29;20170;-90
2021/12/22 07:04:55;;;;;;;31.35;16.33;;;;;;;-4.82;99.29;101459.16;4874100;29;20045;-90
2021/12/22 07:07:23;;;;;;;30.63;16.83;;;;;;;-4.65;98.99;101481.25;4882449;29;20516;-90
2021/12/22 07:09:50;;;;;;;31.92;16.27;;;;;;;-4.63;99.19;101483.88;4878173;29;20054;-90
2021/12/22 07:12:16;;;;;;;33.47;17.42;;;;;;;-4.57;99.04;101484.09;4874041;29;20045;-90
2021/12/22 07:14:43;;;;;;;32.05;17.25;;;;;;;-4.74;98.60;101457.72;4877933;29;20052;-90
2021/12/22 07:17:10;;;;;;;33.03;17.33;;;;;;;-4.50;98.63;101490.31;4879765;29;20076;-90
2021/12/22 07:19:37;;;;;;;33.33;17.08;;;;;;;-4.58;98.67;101484.91;4883234;29;20056;-90
2021/12/22 07:22:04;;;;;;;29.27;16.40;;;;;;;-4.42;98.21;101515.59;4873096;29;20086;-90
2021/12/22 07:24:33;;;;;;;31.77;17.20;;;;;;;-4.51;98.01;101499.78;4878896;29;20053;-91
2021/12/22 07:27:00;;;;;;;35.22;16.77;;;;;;;-4.53;98.19;101496.25;4878377;29;20402;-91
2021/12/22 07:29:27;;;;;;;31.05;16.33;;;;;;;-4.52;98.04;101512.63;4878811;29;20049;-91
2021/12/22 07:31:57;;;;;;;34.13;17.92;;;;;;;-4.42;98.00;101525.94;4876838;29;20525;-90
2021/12/22 07:34:33;;;;;;;33.53;16.75;;;;;;;-4.32;98.21;101537.44;4877343;29;20059;-90
2021/12/22 07:37:21;;;;;;;28.60;15.82;;;;;;;-4.39;98.08;101522.53;4880687;29;20048;-89
2021/12/22 07:40:01;;;;;;;30.05;16.10;;;;;;;-4.30;98.19;101548.69;4880800;29;20057;-89
2021/12/22 07:42:29;;;;;;;33.55;17.25;;;;;;;-4.65;97.86;101483.84;4872256;29;20087;-89
2021/12/22 07:45:03;;;;;;;31.38;16.58;;;;;;;-4.47;97.88;101509.38;4878826;29;20097;-88
2021/12/22 07:47:32;;;;;;;32.53;17.58;;;;;;;-4.58;97.82;101484.91;4879651;29;20083;-90
2021/12/22 07:53:46;;;;;;;31.27;16.38;;;;;;;-4.51;98.45;101481.69;4870315;29;20051;-89
2021/12/22 07:56:16;;;;;;;29.10;16.60;;;;;;;-4.28;98.32;101508.25;4876810;29;20052;-88
2021/12/22 07:58:44;;;;;;;35.88;17.50;;;;;;;-4.18;98.05;101515.44;4878569;29;20045;-88
2021/12/22 08:01:13;;;;;;;35.80;17.77;;;;;;;-4.16;97.49;101506.03;4878496;29;20053;-89
2021/12/22 08:03:40;;;;;;;33.65;16.25;;;;;;;-4.06;97.22;101508.06;4871437;29;20442;-89
2021/12/22 08:06:09;;;;;;;28.20;16.20;;;;;;;-4.10;97.04;101489.84;4882158;29;20057;-89
2021/12/22 08:08:42;;;;;;;31.63;15.85;;;;;;;-4.25;96.81;101462.66;4883909;29;20089;-89
2021/12/22 08:11:10;;;;;;;34.00;16.73;;;;;;;-3.79;96.83;101543.34;4880703;29;20061;-89
2021/12/22 08:13:39;;;;;;;31.42;16.45;;;;;;;-3.97;96.87;101495.41;4877667;29;20053;-89
2021/12/22 08:16:06;;;;;;;29.92;17.02;;;;;;;-3.80;96.96;101516.59;4881078;29;20053;-88
2021/12/22 08:18:36;;;;;;;37.25;17.45;;;;;;;-4.02;96.34;101475.41;4878457;29;20053;-89
2021/12/22 08:21:06;;;;;;;29.42;15.65;;;;;;;-3.79;96.20;101494.19;4883547;29;20049;-88
2021/12/22 08:23:38;;;;;;;32.63;15.85;;;;;;;-3.51;96.39;101532.97;4872972;29;20050;-89
2021/12/22 08:26:05;;;;;;;30.38;16.52;;;;;;;-3.67;96.45;101491.94;4883804;29;20053;-90
2021/12/22 08:28:32;;;;;;;30.10;15.90;;;;;;;-3.34;95.68;101530.84;4879907;29;20076;-89
2021/12/22 08:31:01;;;;;;;28.10;16.90;;;;;;;-3.42;96.02;101502.13;4883349;29;20053;-90
2021/12/22 08:33:31;;;;;;;32.40;16.02;;;;;;;-3.42;95.27;101478.81;4876403;29;20061;-90
2021/12/22 08:38:57;;;;;;;28.48;14.60;;;;;;;-3.11;94.01;101502.94;4883037;29;20156;-90
2021/12/22 08:41:31;;;;;;;22.48;14.85;;;;;;;-3.11;93.76;101489.97;4881692;29;20168;-89
2021/12/22 08:44:02;;;;;;;24.33;14.52;;;;;;;-2.97;93.43;101499.84;4893282;29;20053;-89
2021/12/22 08:46:30;;;;;;;27.35;15.13;;;;;;;-2.97;92.96;101473.94;4877471;29;20057;-89
2021/12/22 08:48:58;;;;;;;29.77;14.65;;;;;;;-3.00;92.54;101460.94;4877760;29;20059;-89
2021/12/22 08:51:25;;;;;;;28.95;14.07;;;;;;;-2.81;92.70;101493.34;4881913;29;20135;-89
2021/12/22 08:53:53;;;;;;;31.63;14.48;;;;;;;-2.83;92.00;101471.69;4880227;29;20121;-90
2021/12/22 08:56:20;;;;;;;28.13;15.00;;;;;;;-2.80;91.56;101466.59;4879855;29;20129;-89
2021/12/22 08:58:47;;;;;;;27.75;15.30;;;;;;;-2.48;93.52;101483.78;4885245;29;20051;-88
2021/12/22 09:01:14;;;;;;;29.85;16.38;;;;;;;-2.05;98.65;101469.19;4892002;29;20109;-88
2021/12/22 09:03:41;;;;;;;30.90;16.63;;;;;;;-1.58;97.90;101510.84;4895617;29;20129;-91
2021/12/22 09:06:08;;;;;;;29.42;15.48;;;;;;;-1.66;93.37;101489.00;4889548;29;20053;-89
2021/12/22 09:08:40;;;;;;;23.30;14.75;;;;;;;-1.98;91.46;101449.41;4875509;29;20052;-89
2021/12/22 09:11:07;;;;;;;26.02;14.38;;;;;;;-2.01;91.12;101439.84;4879496;29;20053;-91
2021/12/22 09:13:37;;;;;;;27.52;14.10;;;;;;;-1.75;91.35;101461.16;4882276;29;20057;-90
2021/12/22 09:16:06;;;;;;;25.23;14.40;;;;;;;-1.68;89.28;101469.91;4877653;29;20049;-90
2021/12/22 09:18:33;;;;;;;22.65;13.13;;;;;;;-1.63;88.38;101482.16;4875024;29;20049;-89
2021/12/22 09:21:01;;;;;;;20.15;12.88;;;;;;;-1.73;87.22;101464.63;4879817;29;20097;-88
2021/12/22 09:23:28;;;;;;;20.83;13.25;;;;;;;-1.62;87.46;101475.25;4879213;29;20532;-89
2021/12/22 09:25:54;;;;;;;26.20;14.43;;;;;;;-1.52;87.34;101492.75;4876294;29;20153;-90
2021/12/22 09:28:21;;;;;;;22.77;14.27;;;;;;;-1.51;86.08;101489.31;4875297;29;20049;-88
2021/12/22 09:30:51;;;;;;;26.92;13.85;;;;;;;-1.48;86.55;101490.25;4882644;29;20085;-89
2021/12/22 09:33:23;;;;;;;23.35;13.73;;;;;;;-1.58;86.04;101477.06;4878517;29;20101;-89
2021/12/22 09:35:53;;;;;;;22.25;14.15;;;;;;;-1.69;85.81;101427.50;4875450;29;20069;-89
2021/12/22 09:38:22;;;;;;;23.08;13.85;;;;;;;-1.41;84.96;101457.44;4876120;29;20056;-89
2021/12/22 09:40:52;;;;;;;23.98;14.32;;;;;;;-1.19;85.16;101498.59;4877727;29;20489;-88
2021/12/22 09:43:19;;;;;;;25.85;13.60;;;;;;;-1.30;85.09;101462.88;4874319;29;20064;-90
2021/12/22 09:45:53;;;;;;;24.05;13.70;;;;;;;-1.42;85.05;101440.97;4877835;29;20926;-89
2021/12/22 09:48:35;;;;;;;25.85;13.50;;;;;;;-1.18;84.36;101461.34;4874057;29;20052;-90
2021/12/22 09:53:34;;;;;;;22.92;13.70;;;;;;;-0.87;84.05;101491.34;4876008;29;20125;-88
2021/12/22 09:56:06;;;;;;;27.52;14.38;;;;;;;-0.79;83.17;101488.91;4880480;29;20415;-89
2021/12/22 09:58:36;;;;;;;25.70;14.40;;;;;;;-0.73;82.03;101487.25;4874909;29;20061;-89
2021/12/22 10:01:03;;;;;;;25.10;13.93;;;;;;;-0.87;82.37;101454.94;4880668;29;20061;-89
2021/12/22 10:03:31;;;;;;;22.75;13.95;;;;;;;-1.07;81.60;101419.94;4885174;29;20084;-90
2021/12/22 10:05:58;;;;;;;23.45;14.27;;;;;;;-0.84;81.67;101441.13;4878249;29;20083;-89
2021/12/22 10:08:26;;;;;;;21.48;14.02;;;;;;;-0.54;81.74;101475.41;4878427;29;20049;-87
2021/12/22 10:11:11;;;;;;;22.55;14.30;;;;;;;-0.63;81.68;101444.03;4888370;29;20086;-89
2021/12/22 10:13:45;;;;;;;23.63;14.32;;;;;;;-0.39;80.60;101479.97;4889745;29;20060;-89
2021/12/22 10:16:18;;;;;;;26.45;14.13;;;;;;;-0.58;80.62;101429.38;4890628;29;20084;-91
2021/12/22 10:18:46;;;;;;;24.33;14.95;;;;;;;-0.54;79.34;101419.91;4866440;29;21763;-89
2021/12/22 10:21:17;;;;;;;28.05;15.68;;;;;;;-0.32;80.08;101442.78;4878312;29;20414;-90
2021/12/22 10:23:50;;;;;;;23.85;14.48;;;;;;;-0.19;79.23;101460.31;4880576;29;20529;-90
2021/12/22 10:26:21;;;;;;;27.25;15.52;;;;;;;-0.27;79.26;101422.00;4879026;29;20429;-89
2021/12/22 10:28:52;;;;;;;26.25;15.68;;;;;;;-0.03;78.36;101454.47;4875198;29;20053;-88
2021/12/22 10:31:32;;;;;;;26.08;15.57;;;;;;;-0.05;78.17;101431.88;4880579;29;20128;-89
2021/12/22 10:34:05;;;;;;;27.03;14.77;;;;;;;-0.11;77.59;101408.34;4876011;29;20132;-88
2021/12/22 11:36:17;;;;;;;27.20;15.95;;;;;;;0.65;74.25;101359.66;4916449;27;20052;-90
2021/12/22 11:38:48;;;;;;;30.05;16.88;;;;;;;0.48;73.35;101333.44;4915788;29;20052;-89
2021/12/22 11:41:18;;;;;;;24.67;16.15;;;;;;;0.61;73.75;101345.75;4921873;29;20070;-91
2021/12/22 11:43:51;;;;;;;31.90;17.42;;;;;;;0.66;73.48;101335.34;4922132;29;20551;-90
2021/12/22 12:10:38;;;;;;;28.35;16.90;;;;;;;1.58;70.53;101339.41;4872282;29;20055;-94
2021/12/22 12:13:18;;;;;;;29.30;16.75;;;;;;;1.59;70.11;101318.53;4869641;29;20145;-90
2021/12/22 12:27:43;;;;;;;25.55;15.65;;;;;;;1.96;68.79;101324.78;4875818;29;20235;-90
2021/12/22 12:45:45;;;;;;;26.77;17.10;;;;;;;1.94;69.55;101317.78;5837424;23;21675;-89
2021/12/22 12:48:23;;;;;;;;;;;;;;;2.00;70.04;101315.22;4837572;29;20063;-90
2021/12/22 12:51:13;;;;;;;29.73;16.35;;;;;;;2.05;68.46;101313.47;4838833;29;20352;-88
2021/12/22 12:53:44;;;;;;;24.00;16.35;;;;;;;1.97;68.43;101297.78;4845590;29;20054;-89
2021/12/22 12:56:15;;;;;;;25.80;15.35;;;;;;;1.82;68.66;101283.81;4844478;29;20054;-89
2021/12/22 12:59:03;;;;;;;25.70;16.45;;;;;;;2.11;69.15;101303.03;4839912;29;20066;-90
2021/12/22 13:01:51;;;;;;;23.55;16.08;;;;;;;2.18;69.18;101298.72;4841343;29;20082;-89
2021/12/22 13:04:23;;;;;;;23.70;15.63;;;;;;;2.24;68.42;101293.47;4843997;29;20062;-89
2021/12/22 13:07:17;;;;;;;29.98;16.90;;;;;;;2.29;68.26;101294.34;4837644;29;20057;-90
2021/12/22 13:09:55;;;;;;;23.85;17.02;;;;;;;2.11;67.51;101243.81;4839462;29;20049;-89
2021/12/22 13:17:57;;;;;;;27.27;16.33;;;;;;;2.00;67.57;101213.34;4842942;29;20695;-90
2021/12/22 13:20:37;;;;;;;28.15;16.83;;;;;;;2.36;67.47;101278.66;4822915;29;20124;-89
2021/12/22 13:23:10;;;;;;;27.50;17.02;;;;;;;2.30;67.54;101262.13;4849893;29;20102;-89
2021/12/22 13:25:44;;;;;;;25.00;16.27;;;;;;;2.00;67.56;101224.66;4844904;29;20046;-88
2021/12/22 13:28:24;;;;;;;27.67;16.65;;;;;;;2.21;68.78;101268.19;4852251;29;20088;-90
2021/12/22 13:30:57;;;;;;;22.90;15.90;;;;;;;2.40;68.91;101280.41;4838773;29;20053;-89
2021/12/22 13:33:34;;;;;;;24.70;15.98;;;;;;;2.47;67.40;101276.06;4846001;29;20069;-89
2021/12/22 13:36:14;;;;;;;26.35;16.10;;;;;;;2.25;67.00;101224.66;4842691;29;20136;-89
2021/12/22 13:38:53;;;;;;;24.05;15.15;;;;;;;2.31;66.25;101235.13;4843090;29;20060;-89
2021/12/22 13:41:29;;;;;;;24.13;15.20;;;;;;;2.53;66.77;101281.28;4843834;29;20072;-89
2021/12/22 13:44:01;;;;;;;22.55;15.65;;;;;;;2.55;66.26;101265.59;4848484;29;20065;-89